This is the latest recevied weather packets stored in our database for station/object N5PLO-10. If no packets are shown the sender has not sent any weather packets the latest 1 day(s).
| Time | Temp. | Humidity | Pressure | Rain* | Wind** | Luminosity | Snow |
|---|---|---|---|---|---|---|---|
| 1778011272 | 29.44° C | 77% | 1013.6 hPa | 0 mm | 0.89 m/s, 147° | 301 W/m² | - |
| 1778010968 | 29.44° C | 77% | 1013.5 hPa | 0 mm | 0.45 m/s, 214° | 395 W/m² | - |
| 1778010666 | 28.89° C | 78% | 1013.5 hPa | 0 mm | 0.45 m/s, 253° | 325 W/m² | - |
| 1778010363 | 29.44° C | 78% | 1013.8 hPa | 0 mm | 0 m/s | 145 W/m² | - |
| 1778010058 | 29.44° C | 77% | 1013.7 hPa | 0 mm | 0.89 m/s, 249° | 236 W/m² | - |
| 1778009755 | 29.44° C | 78% | 1013.5 hPa | 0 mm | 0.45 m/s, 270° | 176 W/m² | - |
| 1778009452 | 28.89° C | 79% | 1013.4 hPa | 0 mm | 0.45 m/s, 305° | 287 W/m² | - |
| 1778009151 | 28.89° C | 78% | 1013.8 hPa | 0 mm | 0.45 m/s, 61° | 270 W/m² | - |
| 1778008848 | 28.89° C | 79% | 1013.9 hPa | 0 mm | 0.45 m/s, 260° | 249 W/m² | - |
| 1778008546 | 28.33° C | 79% | 1013.9 hPa | 0 mm | 0 m/s | 342 W/m² | - |
| 1778008244 | 27.78° C | 80% | 1014 hPa | 0 mm | 0 m/s | 190 W/m² | - |
| 1778007938 | 27.78° C | 80% | 1013.8 hPa | 0 mm | 0.45 m/s, 273° | 157 W/m² | - |
| 1778007634 | 27.78° C | 81% | 1013.9 hPa | 0 mm | 0 m/s | 130 W/m² | - |
| 1778007331 | 28.33° C | 80% | 1013.9 hPa | 0 mm | 0.45 m/s, 281° | 74 W/m² | - |
| 1778007028 | 28.89° C | 79% | 1013.9 hPa | 0 mm | 0.45 m/s, 250° | 118 W/m² | - |
| 1778006724 | 28.89° C | 78% | 1013.7 hPa | 0 mm | 0 m/s | 213 W/m² | - |
| 1778006421 | 28.89° C | 79% | 1013.8 hPa | 0 mm | 0.45 m/s, 205° | 216 W/m² | - |
| 1778006118 | 28.33° C | 79% | 1013.8 hPa | 0 mm | 0.45 m/s, 308° | 277 W/m² | - |
| 1778005816 | 28.33° C | 79% | 1014 hPa | 0 mm | 0.89 m/s, 16° | 295 W/m² | - |
| 1778005512 | 28.33° C | 79% | 1013.9 hPa | 0 mm | 0.45 m/s, 346° | 210 W/m² | - |
| 1778005209 | 28.33° C | 80% | 1014 hPa | 0 mm | 0 m/s | 283 W/m² | - |
| 1778004905 | 28.33° C | 79% | 1014 hPa | 0 mm | 1.34 m/s, 249° | 255 W/m² | - |
| 1778004603 | 27.78° C | 81% | 1013.9 hPa | 0 mm | 0 m/s | 286 W/m² | - |
| 1778004298 | 27.78° C | 81% | 1013.8 hPa | 0 mm | 0 m/s | 206 W/m² | - |
| 1778003995 | 27.78° C | 81% | 1013.9 hPa | 0 mm | 0 m/s | 263 W/m² | - |
* Rain latest hour (hover to see other rain measurements)
** Current wind speed in m/s (hover to see current wind gust speed)